Time;durP1;ratioP1;P1;durP2;ratioP2;P2;SDS_P1;SDS_P2;PMS_P1;PMS_P2;Temp;Humidity;BMP_temperature;BMP_pressure;BME280_temperature;BME280_humidity;BME280_pressure;Samples;Min_cycle;Max_cycle;Signal;HPM_P1;HPM_P2
2023/06/11 00:01:50;;;;;;;95.63;6.93;;;;;;;24.20;57.53;99640.97;7296747;19;130892;-40
2023/06/11 00:04:19;;;;;;;122.40;8.23;;;;;;;24.21;57.51;99643.44;7296770;19;130494;-39
2023/06/11 00:06:45;;;;;;;121.15;8.18;;;;;;;24.22;57.26;99645.13;7296462;19;129718;-39
2023/06/11 00:09:11;;;;;;;122.32;8.43;;;;;;;24.22;57.67;99647.75;7295827;19;129385;-39
2023/06/11 00:11:41;;;;;;;98.70;7.43;;;;;;;24.22;57.33;99644.28;7295790;19;131132;-40
2023/06/11 00:14:10;;;;;;;101.30;7.47;;;;;;;24.21;57.44;99638.19;7295662;19;130115;-39
2023/06/11 00:16:36;;;;;;;105.95;7.78;;;;;;;24.22;57.21;99639.88;7295223;19;130781;-39
2023/06/11 00:19:03;;;;;;;128.95;8.35;;;;;;;24.23;56.66;99646.75;7303087;19;129740;-39
2023/06/11 00:21:29;;;;;;;;;;;;;;;24.32;57.52;99640.59;7302474;19;130517;-38
2023/06/11 00:23:55;;;;;;;102.32;7.55;;;;;;;24.25;56.43;99650.06;7303259;19;130060;-39
2023/06/11 00:26:22;;;;;;;91.70;6.85;;;;;;;24.25;55.45;99644.81;7299467;19;129700;-39
2023/06/11 00:28:48;;;;;;;122.07;8.45;;;;;;;24.26;56.97;99650.88;7303167;19;130704;-40
2023/06/11 00:31:13;;;;;;;115.90;7.80;;;;;;;24.25;56.66;99647.44;7302406;19;130231;-38
2023/06/11 00:33:38;;;;;;;105.50;7.50;;;;;;;24.23;56.60;99649.38;7301581;19;130257;-40
2023/06/11 00:36:04;;;;;;;93.43;7.20;;;;;;;24.25;56.92;99643.97;7300829;19;130086;-39
2023/06/11 00:38:30;;;;;;;136.63;8.93;;;;;;;24.16;56.19;99623.91;7298877;19;129685;-40
2023/06/11 00:40:56;;;;;;;116.83;8.00;;;;;;;24.18;56.07;99642.97;7301956;19;129612;-38
2023/06/11 00:43:23;;;;;;;108.23;7.43;;;;;;;24.25;56.87;99650.06;7302097;19;130044;-39
2023/06/11 00:45:51;;;;;;;;;;;;;;;24.33;56.65;99652.72;7301529;19;130690;-39
2023/06/11 00:48:19;;;;;;;111.07;7.80;;;;;;;24.29;56.73;99646.16;7301806;19;130728;-38
2023/06/11 00:50:48;;;;;;;42.35;4.55;;;;;;;24.25;56.72;99644.81;7313724;19;130184;-41
2023/06/11 00:53:17;;;;;;;12.43;2.92;;;;;;;24.26;56.82;99646.44;7316939;19;130526;-42
2023/06/11 00:55:43;;;;;;;36.88;4.00;;;;;;;24.25;56.71;99650.06;7315056;19;129461;-41
2023/06/11 00:58:13;;;;;;;55.80;5.30;;;;;;;24.23;56.28;99652.00;7312201;19;129512;-40
2023/06/11 01:00:40;;;;;;;35.67;4.40;;;;;;;24.21;56.73;99646.06;7315897;19;130934;-39
2023/06/11 01:03:10;;;;;;;114.00;8.23;;;;;;;24.22;56.55;99654.78;7308006;19;131126;-41
2023/06/11 01:05:43;;;;;;;110.50;7.82;;;;;;;24.22;56.28;99657.41;7296510;19;129652;-42
2023/06/11 01:08:13;;;;;;;132.50;8.85;;;;;;;24.20;56.33;99657.56;7300826;19;130661;-41
2023/06/11 01:10:40;;;;;;;144.23;9.57;;;;;;;24.21;56.47;99650.53;7299694;19;131538;-37
2023/06/11 01:13:05;;;;;;;96.70;7.10;;;;;;;24.23;56.76;99652.00;7301995;19;129976;-39
2023/06/11 01:15:31;;;;;;;167.90;10.63;;;;;;;24.25;56.54;99655.31;7299599;19;131792;-38
2023/06/11 01:18:05;;;;;;;71.15;6.00;;;;;;;24.25;56.24;99644.81;7299595;19;129886;-40
2023/06/11 01:20:36;;;;;;;159.20;10.35;;;;;;;24.22;56.13;99639.88;7298576;19;130244;-41
2023/06/11 01:23:16;;;;;;;95.72;6.80;;;;;;;24.27;56.60;99649.91;7304033;19;130832;-37
2023/06/11 01:26:03;;;;;;;100.28;7.05;;;;;;;24.27;56.60;99652.53;7301875;19;130921;-36
2023/06/11 01:28:31;;;;;;;101.97;7.03;;;;;;;24.24;55.53;99658.94;7302741;19;129067;-41
2023/06/11 01:30:59;;;;;;;88.47;6.72;;;;;;;24.24;56.41;99655.47;7302287;19;130650;-42
2023/06/11 01:33:26;;;;;;;78.30;5.63;;;;;;;24.25;56.30;99662.34;7302266;19;129854;-39
2023/06/11 01:35:52;;;;;;;123.15;8.00;;;;;;;24.25;56.05;99655.31;7299873;19;130998;-41
2023/06/11 01:38:21;;;;;;;93.17;6.63;;;;;;;24.26;56.14;99659.56;7301340;19;129714;-41
2023/06/11 01:40:47;;;;;;;107.95;7.30;;;;;;;24.23;55.84;99665.16;7302030;19;130107;-39
2023/06/11 01:43:12;;;;;;;90.73;6.60;;;;;;;24.26;55.83;99667.47;7302000;19;129820;-40
2023/06/11 01:45:38;;;;;;;116.85;8.13;;;;;;;24.26;55.29;99666.66;7300923;19;130130;-37
2023/06/11 01:48:04;;;;;;;91.78;6.70;;;;;;;24.26;55.58;99662.19;7303320;19;129162;-39
2023/06/11 01:50:30;;;;;;;133.13;8.88;;;;;;;24.25;55.49;99665.81;7302881;19;129881;-40
2023/06/11 01:52:55;;;;;;;93.90;6.80;;;;;;;24.26;56.15;99666.66;7303596;19;130252;-40
2023/06/11 01:55:21;;;;;;;145.33;9.50;;;;;;;24.16;56.07;99645.72;7299005;19;129388;-41
2023/06/11 01:57:46;;;;;;;99.33;7.07;;;;;;;24.15;56.18;99649.34;7298855;19;129447;-37
2023/06/11 02:00:12;;;;;;;92.60;6.57;;;;;;;24.26;55.45;99667.47;7298852;19;130048;-39
2023/06/11 02:02:41;;;;;;;42.65;4.00;;;;;;;24.25;55.93;99668.44;7301479;19;129283;-42
2023/06/11 02:05:07;;;;;;;92.30;6.55;;;;;;;24.24;55.87;99673.88;7313746;19;129148;-39
2023/06/11 02:07:33;;;;;;;44.03;4.32;;;;;;;24.20;55.79;99673.34;7314065;19;129404;-41
2023/06/11 02:09:58;;;;;;;49.07;4.73;;;;;;;24.23;55.34;99677.44;7315457;19;129274;-38
2023/06/11 02:12:24;;;;;;;41.37;4.13;;;;;;;24.22;55.94;99671.38;7314797;19;130663;-38
2023/06/11 02:14:49;;;;;;;119.27;8.60;;;;;;;24.23;55.74;99686.16;7312381;19;129302;-39
2023/06/11 02:17:14;;;;;;;35.10;3.67;;;;;;;24.21;55.77;99674.97;7313620;19;128932;-39
2023/06/11 02:19:39;;;;;;;33.57;3.37;;;;;;;24.21;56.03;99680.22;7315005;19;129104;-39
2023/06/11 02:22:05;;;;;;;58.40;4.57;;;;;;;24.21;55.53;99682.84;7311716;19;129271;-38
2023/06/11 02:24:31;;;;;;;57.70;5.17;;;;;;;24.19;55.87;99676.13;7312777;19;129041;-40
2023/06/11 02:26:56;;;;;;;26.23;3.47;;;;;;;24.21;55.28;99674.19;7316068;19;129389;-39
2023/06/11 02:29:21;;;;;;;29.00;3.35;;;;;;;24.19;55.73;99671.72;7313579;19;129214;-38
2023/06/11 02:31:47;;;;;;;49.08;4.25;;;;;;;24.12;55.85;99659.31;7313457;19;129117;-38
2023/06/11 02:34:12;;;;;;;54.05;4.32;;;;;;;24.20;55.57;99670.72;7313409;19;129064;-40
2023/06/11 02:36:37;;;;;;;81.45;5.90;;;;;;;24.19;55.59;99684.84;7312751;19;129049;-39
2023/06/11 02:39:03;;;;;;;39.33;3.70;;;;;;;24.18;56.13;99680.53;7310954;19;129682;-38
2023/06/11 02:41:29;;;;;;;52.23;4.50;;;;;;;24.20;55.45;99675.97;7313237;19;129679;-40
2023/06/11 02:43:54;;;;;;;30.60;3.27;;;;;;;24.17;56.03;99676.28;7314265;19;129444;-40
2023/06/11 02:46:19;;;;;;;25.03;3.03;;;;;;;24.17;55.70;99684.16;7310619;19;129523;-40
2023/06/11 02:48:45;;;;;;;33.85;3.55;;;;;;;24.16;55.53;99677.25;7313650;19;129567;-39
2023/06/11 02:51:10;;;;;;;67.67;5.30;;;;;;;24.19;55.87;99681.38;7312931;19;129367;-40
2023/06/11 02:53:35;;;;;;;36.27;3.57;;;;;;;24.19;56.19;99679.59;7314074;19;128805;-40
2023/06/11 02:56:01;;;;;;;40.70;3.87;;;;;;;24.18;56.22;99677.91;7311807;19;129016;-39
2023/06/11 02:58:26;;;;;;;34.80;3.30;;;;;;;24.19;55.74;99682.22;7312377;19;129040;-38
2023/06/11 03:00:51;;;;;;;58.10;4.77;;;;;;;24.18;56.06;99685.00;7312290;19;129824;-39
2023/06/11 03:03:17;;;;;;;24.42;3.13;;;;;;;24.20;56.07;99688.28;7311375;19;129457;-41
2023/06/11 03:05:42;;;;;;;32.83;3.50;;;;;;;24.18;55.87;99683.16;7310279;19;129317;-37
2023/06/11 03:08:07;;;;;;;50.57;4.37;;;;;;;24.19;56.19;99691.88;7313918;19;129836;-37
2023/06/11 03:10:33;;;;;;;78.83;5.87;;;;;;;24.09;55.78;99680.66;7309212;19;130090;-38
2023/06/11 03:12:58;;;;;;;32.33;3.40;;;;;;;24.19;55.80;99694.50;7312404;19;129857;-39
2023/06/11 03:15:23;;;;;;;30.07;3.50;;;;;;;24.19;55.77;99684.84;7311564;19;129510;-40
2023/06/11 03:17:49;;;;;;;100.90;6.88;;;;;;;24.15;55.49;99691.38;7310268;19;129308;-40
2023/06/11 03:20:14;;;;;;;56.30;4.57;;;;;;;24.08;56.09;99673.75;7312935;19;129175;-39
2023/06/11 03:22:40;;;;;;;27.80;3.87;;;;;;;24.19;56.15;99695.34;7312575;19;128766;-39
2023/06/11 03:25:05;;;;;;;33.90;3.93;;;;;;;24.06;55.71;99681.78;7312333;19;128953;-41
2023/06/11 03:27:31;;;;;;;116.90;8.15;;;;;;;24.15;56.13;99701.88;7310276;19;130545;-39
2023/06/11 03:29:56;;;;;;;29.73;3.30;;;;;;;24.10;55.77;99696.25;7312776;19;130158;-41
2023/06/11 03:32:22;;;;;;;34.63;3.88;;;;;;;24.18;55.58;99701.56;7311930;19;129751;-40
2023/06/11 03:34:47;;;;;;;17.40;2.80;;;;;;;24.17;55.85;99699.94;7312337;19;129080;-41
2023/06/11 03:37:13;;;;;;;73.00;5.67;;;;;;;24.17;55.38;99715.69;7310715;19;129800;-40
2023/06/11 03:39:38;;;;;;;30.33;3.43;;;;;;;24.16;55.81;99703.50;7313099;19;129154;-40
2023/06/11 03:42:04;;;;;;;40.70;4.10;;;;;;;24.16;56.12;99703.50;7311599;19;129073;-38
2023/06/11 03:44:29;;;;;;;95.43;6.53;;;;;;;24.18;55.43;99706.81;7299790;19;131038;-38
2023/06/11 03:46:54;;;;;;;109.20;7.30;;;;;;;24.19;55.57;99705.84;7299809;19;130595;-41
2023/06/11 03:49:20;;;;;;;101.03;7.70;;;;;;;24.16;55.75;99697.47;7297396;19;131323;-41
2023/06/11 03:51:45;;;;;;;84.37;6.50;;;;;;;24.17;55.32;99705.19;7305476;19;129885;-42
2023/06/11 03:54:10;;;;;;;99.37;6.80;;;;;;;24.18;55.80;99701.56;7307188;19;129541;-40
2023/06/11 03:56:36;;;;;;;91.20;6.47;;;;;;;24.22;55.81;99696.84;7306778;19;130301;-40
2023/06/11 03:59:01;;;;;;;104.60;7.05;;;;;;;24.22;56.00;99699.47;7304791;19;130090;-38
2023/06/11 04:01:26;;;;;;;88.33;6.57;;;;;;;24.22;55.56;99707.34;7305276;19;129990;-39
2023/06/11 04:03:52;;;;;;;109.43;7.37;;;;;;;24.22;55.69;99702.91;7306814;19;129273;-40
2023/06/11 04:06:18;;;;;;;97.05;7.32;;;;;;;24.23;56.09;99715.06;7304642;19;131852;-41
2023/06/11 04:08:43;;;;;;;84.07;6.07;;;;;;;24.23;55.71;99708.97;7307963;19;130560;-39
2023/06/11 04:11:08;;;;;;;87.77;6.60;;;;;;;24.24;55.31;99721.16;7308099;19;130682;-40
2023/06/11 04:13:34;;;;;;;127.20;8.17;;;;;;;24.24;55.35;99729.88;7307258;19;130222;-41
2023/06/11 04:15:59;;;;;;;68.68;5.43;;;;;;;24.21;55.97;99722.28;7304710;19;130242;-42
2023/06/11 04:18:25;;;;;;;90.50;6.27;;;;;;;24.16;55.48;99724.53;7304494;19;130569;-39
2023/06/11 04:20:51;;;;;;;91.83;6.47;;;;;;;24.25;55.44;99728.88;7303284;19;129339;-40
2023/06/11 04:23:16;;;;;;;45.40;3.88;;;;;;;24.23;55.30;99725.56;7309566;19;129883;-39
2023/06/11 04:25:43;;;;;;;38.67;3.90;;;;;;;24.25;55.28;99728.88;7315607;19;129241;-40
2023/06/11 04:28:09;;;;;;;103.75;6.97;;;;;;;24.23;56.03;99730.00;7315886;19;129395;-38
2023/06/11 04:30:34;;;;;;;49.97;4.43;;;;;;;24.18;55.92;99733.09;7315752;19;129100;-38
2023/06/11 04:33:03;;;;;;;55.87;4.47;;;;;;;24.21;56.21;99731.97;7318743;19;129235;-38
2023/06/11 04:35:29;;;;;;;39.75;4.13;;;;;;;24.21;55.39;99731.97;7313218;19;129249;-39
2023/06/11 04:37:55;;;;;;;44.00;4.00;;;;;;;24.20;55.75;99730.31;7316458;19;130308;-39
2023/06/11 04:40:23;;;;;;;82.65;6.18;;;;;;;24.19;55.61;99721.63;7314123;19;129113;-40
2023/06/11 04:42:49;;;;;;;45.35;4.15;;;;;;;24.12;55.54;99717.94;7318014;19;129012;-40
2023/06/11 04:45:18;;;;;;;20.90;3.13;;;;;;;24.21;55.78;99721.47;7310725;19;130635;-40
2023/06/11 04:47:45;;;;;;;27.95;3.10;;;;;;;24.18;55.78;99722.56;7317506;19;130442;-38
2023/06/11 04:50:11;;;;;;;135.38;8.73;;;;;;;24.19;55.57;99726.03;7314753;19;128751;-41
2023/06/11 04:52:42;;;;;;;33.73;3.40;;;;;;;24.18;56.08;99722.56;7315878;19;129380;-39
2023/06/11 04:55:12;;;;;;;34.72;4.00;;;;;;;24.18;55.81;99717.31;7316775;19;129460;-39
2023/06/11 04:57:38;;;;;;;41.25;4.03;;;;;;;24.20;56.28;99731.13;7313327;19;130268;-39
2023/06/11 05:00:07;;;;;;;33.20;3.63;;;;;;;24.19;56.06;99724.25;7315189;19;130236;-39
2023/06/11 05:02:44;;;;;;;60.67;4.65;;;;;;;24.16;55.32;99724.53;7313588;19;129615;-40
2023/06/11 05:05:10;;;;;;;51.63;4.13;;;;;;;24.19;56.12;99724.25;7312868;19;129826;-39
2023/06/11 05:07:36;;;;;;;35.23;3.60;;;;;;;24.20;55.55;99725.88;7316540;19;129918;-40
2023/06/11 05:10:01;;;;;;;86.80;6.23;;;;;;;24.18;55.33;99730.47;7310453;19;129321;-40
2023/06/11 05:12:26;;;;;;;92.23;6.50;;;;;;;24.20;55.93;99732.94;7303408;19;129779;-40
2023/06/11 05:14:52;;;;;;;108.63;6.83;;;;;;;24.16;55.41;99734.22;7303917;19;130584;-39
2023/06/11 05:17:17;;;;;;;95.90;6.80;;;;;;;24.14;55.66;99730.94;7304538;19;129538;-38
2023/06/11 05:19:43;;;;;;;66.47;5.63;;;;;;;24.11;55.69;99715.47;7305720;19;130648;-39
2023/06/11 05:22:08;;;;;;;113.83;7.30;;;;;;;24.21;55.65;99727.53;7304764;19;129833;-38
2023/06/11 05:24:34;;;;;;;98.70;6.40;;;;;;;24.21;56.26;99732.78;7303992;19;130260;-39
2023/06/11 05:27:00;;;;;;;73.30;5.73;;;;;;;24.24;55.93;99729.03;7305119;19;130902;-39
2023/06/11 05:29:26;;;;;;;94.83;6.67;;;;;;;24.20;55.78;99722.41;7304723;19;130241;-39
2023/06/11 05:31:52;;;;;;;124.82;7.82;;;;;;;24.26;55.55;99730.50;7303533;19;129364;-38
2023/06/11 05:34:18;;;;;;;106.87;7.23;;;;;;;24.25;56.34;99734.13;7304125;19;129695;-40
2023/06/11 05:36:45;;;;;;;76.17;5.60;;;;;;;24.27;56.48;99737.44;7304531;19;130850;-40
2023/06/11 05:39:12;;;;;;;79.15;5.57;;;;;;;24.27;56.13;99744.50;7301215;19;129723;-40
2023/06/11 05:41:38;;;;;;;111.43;7.15;;;;;;;24.26;56.39;99737.59;7304070;19;129763;-38
2023/06/11 05:44:04;;;;;;;21.80;2.85;;;;;;;24.21;56.20;99726.72;7306714;19;131011;-39
2023/06/11 05:46:29;;;;;;;34.10;3.47;;;;;;;24.26;56.05;99733.16;7312418;19;129262;-38
2023/06/11 05:48:55;;;;;;;52.37;4.13;;;;;;;24.31;55.63;99746.66;7314842;19;129116;-40
2023/06/11 05:51:20;;;;;;;51.93;4.20;;;;;;;24.28;56.45;99749.59;7314796;19;129347;-40
2023/06/11 05:53:46;;;;;;;45.00;3.72;;;;;;;24.26;56.05;99746.28;7315810;19;129024;-40
2023/06/11 05:56:11;;;;;;;30.77;3.40;;;;;;;24.25;55.65;99749.91;7312706;19;130078;-39
2023/06/11 05:58:37;;;;;;;80.43;5.77;;;;;;;24.14;56.25;99737.00;7301109;19;130248;-41
2023/06/11 06:01:03;;;;;;;53.10;4.67;;;;;;;24.26;56.50;99756.00;7313366;19;130362;-38
2023/06/11 06:03:33;;;;;;;58.42;4.45;;;;;;;24.24;56.56;99750.88;7315858;19;130173;-39
2023/06/11 06:06:01;;;;;;;29.77;3.15;;;;;;;24.24;56.48;99752.69;7312898;19;129333;-37
2023/06/11 06:08:27;;;;;;;32.25;3.47;;;;;;;24.20;56.59;99754.78;7314848;19;129596;-39
2023/06/11 06:10:53;;;;;;;;;;;;;;;24.30;56.69;99755.53;7314179;19;129039;-38
2023/06/11 06:13:19;;;;;;;36.60;3.45;;;;;;;24.24;56.64;99764.03;7314607;19;129189;-39
2023/06/11 06:15:44;;;;;;;53.10;4.60;;;;;;;24.22;56.33;99765.13;7307401;19;130221;-40
2023/06/11 06:18:10;;;;;;;31.58;3.25;;;;;;;24.22;56.24;99765.97;7313144;19;129225;-37
2023/06/11 06:20:35;;;;;;;69.17;4.90;;;;;;;24.25;56.13;99765.66;7311545;19;130278;-38
2023/06/11 06:23:01;;;;;;;28.80;2.90;;;;;;;24.25;55.90;99763.03;7312241;19;129577;-39
2023/06/11 06:25:26;;;;;;;72.27;4.97;;;;;;;24.10;57.54;99745.31;7309581;19;129521;-39
2023/06/11 06:27:52;;;;;;;55.57;4.37;;;;;;;24.20;56.34;99756.56;7310204;19;129266;-38
2023/06/11 06:30:17;;;;;;;67.93;4.83;;;;;;;24.21;57.12;99763.50;7313669;19;129081;-39
2023/06/11 06:32:43;;;;;;;32.05;3.05;;;;;;;24.21;56.30;99759.06;7313679;19;129206;-39
2023/06/11 06:35:09;;;;;;;38.33;3.77;;;;;;;24.23;56.98;99758.91;7309249;19;129969;-39
2023/06/11 06:37:35;;;;;;;36.73;3.60;;;;;;;24.24;57.01;99764.03;7313034;19;128798;-40
2023/06/11 06:40:00;;;;;;;30.70;3.27;;;;;;;24.24;56.46;99760.56;7311828;19;129297;-39
2023/06/11 06:42:25;;;;;;;28.50;3.22;;;;;;;24.23;56.33;99757.09;7312889;19;129909;-38
2023/06/11 06:44:51;;;;;;;33.78;3.28;;;;;;;24.22;56.93;99765.97;7310939;19;130625;-40
2023/06/11 06:47:16;;;;;;;64.97;4.63;;;;;;;24.27;56.98;99757.63;7313092;19;128876;-39
2023/06/11 06:49:41;;;;;;;60.27;4.57;;;;;;;24.20;57.10;99760.03;7313753;19;129649;-38
2023/06/11 06:52:09;;;;;;;82.50;6.00;;;;;;;24.19;56.93;99768.06;7306854;19;129647;-40
2023/06/11 06:54:35;;;;;;;35.83;3.13;;;;;;;24.19;56.78;99763.66;7310938;19;129203;-38
2023/06/11 06:57:00;;;;;;;44.53;3.87;;;;;;;24.21;57.24;99759.06;7310816;19;128954;-39
2023/06/11 06:59:25;;;;;;;32.07;3.10;;;;;;;24.26;56.29;99767.31;7310422;19;129276;-39
2023/06/11 07:01:51;;;;;;;33.57;3.00;;;;;;;24.23;56.60;99764.16;7307577;19;129924;-37
2023/06/11 07:04:16;;;;;;;38.92;3.50;;;;;;;24.25;56.48;99765.66;7313239;19;130980;-38
2023/06/11 07:06:42;;;;;;;88.53;5.90;;;;;;;24.24;56.88;99764.03;7311733;19;129408;-40
2023/06/11 07:09:08;;;;;;;24.57;2.53;;;;;;;24.22;57.51;99765.97;7311067;19;129645;-40
2023/06/11 07:11:34;;;;;;;40.33;3.83;;;;;;;24.23;57.25;99759.72;7311469;19;130129;-40
2023/06/11 07:13:59;;;;;;;13.03;2.37;;;;;;;24.22;57.09;99765.13;7312087;19;130449;-40
2023/06/11 07:16:24;;;;;;;52.15;3.90;;;;;;;24.22;56.89;99765.97;7310314;19;129951;-38
2023/06/11 07:18:50;;;;;;;27.10;2.63;;;;;;;24.21;56.92;99759.06;7310829;19;128841;-41
2023/06/11 07:21:17;;;;;;;18.87;2.67;;;;;;;24.24;57.29;99764.03;7312114;19;129639;-38
2023/06/11 07:23:42;;;;;;;34.05;2.97;;;;;;;24.22;55.94;99765.13;7311150;19;129372;-40
2023/06/11 07:26:08;;;;;;;42.13;3.53;;;;;;;24.22;56.58;99759.88;7309767;19;128966;-38
2023/06/11 07:28:33;;;;;;;30.88;3.03;;;;;;;24.26;56.73;99763.88;7312766;19;129465;-39
2023/06/11 07:30:58;;;;;;;9.80;2.27;;;;;;;24.23;57.10;99764.16;7309125;19;129072;-38
2023/06/11 07:33:24;;;;;;;54.20;3.87;;;;;;;24.12;57.26;99761.78;7309471;19;129571;-39
2023/06/11 07:35:49;;;;;;;42.73;3.57;;;;;;;24.13;57.34;99759.00;7311150;19;129003;-39
2023/06/11 07:38:16;;;;;;;30.17;2.97;;;;;;;24.17;57.11;99762.97;7310507;19;129677;-40
2023/06/11 07:40:42;;;;;;;32.40;2.97;;;;;;;24.19;57.61;99766.28;7312098;19;130023;-39
2023/06/11 07:43:07;;;;;;;60.43;4.43;;;;;;;24.20;57.23;99767.09;7311000;19;130292;-40
2023/06/11 07:45:32;;;;;;;39.00;3.53;;;;;;;24.22;57.16;99760.72;7310435;19;129086;-39
2023/06/11 07:47:58;;;;;;;35.17;3.43;;;;;;;24.20;56.88;99765.28;7310732;19;129224;-39
2023/06/11 07:50:23;;;;;;;59.33;5.10;;;;;;;24.20;57.21;99762.66;7307065;19;129583;-38
2023/06/11 07:52:48;;;;;;;46.03;3.60;;;;;;;24.20;57.21;99762.66;7309738;19;129141;-37
2023/06/11 07:55:16;;;;;;;41.08;3.67;;;;;;;24.19;55.99;99755.78;7309665;19;130063;-38
2023/06/11 07:57:41;;;;;;;74.93;5.45;;;;;;;24.25;57.14;99752.53;7306995;19;130254;-40
2023/06/11 08:00:12;;;;;;;45.43;3.73;;;;;;;24.20;57.83;99752.16;7306782;19;130445;-39
2023/06/11 08:02:41;;;;;;;50.35;3.85;;;;;;;24.22;57.73;99750.22;7310799;19;129349;-39
2023/06/11 08:05:07;;;;;;;26.00;2.63;;;;;;;24.25;57.11;99749.06;7308391;19;128895;-38
2023/06/11 08:07:32;;;;;;;31.43;3.07;;;;;;;24.15;56.76;99736.03;7311623;19;129196;-39
2023/06/11 08:09:57;;;;;;;44.83;3.83;;;;;;;24.15;57.17;99749.16;7306323;19;129407;-37
2023/06/11 08:12:23;;;;;;;42.70;3.90;;;;;;;24.12;57.91;99736.34;7309673;19;129201;-38
2023/06/11 08:14:48;;;;;;;73.17;4.80;;;;;;;24.19;56.69;99740.00;7306949;19;129138;-40
2023/06/11 08:17:14;;;;;;;37.43;3.17;;;;;;;24.07;56.74;99728.09;7310955;19;129922;-38
2023/06/11 08:19:39;;;;;;;32.25;3.33;;;;;;;24.14;57.74;99746.69;7308205;19;129009;-38
2023/06/11 08:22:04;;;;;;;86.20;5.88;;;;;;;24.04;57.91;99719.69;7304397;19;130395;-40
2023/06/11 08:24:30;;;;;;;38.83;3.28;;;;;;;24.08;57.88;99747.31;7310814;19;129924;-37
2023/06/11 08:26:56;;;;;;;32.47;3.57;;;;;;;23.96;57.75;99723.06;7309779;19;129265;-37
2023/06/11 08:29:21;;;;;;;28.03;2.93;;;;;;;24.02;57.98;99737.38;7310080;19;129441;-37
2023/06/11 08:31:47;;;;;;;32.33;3.40;;;;;;;23.88;58.20;99741.34;7308220;19;130835;-39
2023/06/11 08:34:12;;;;;;;61.07;4.70;;;;;;;23.87;58.50;99739.69;7307587;19;129210;-38
2023/06/11 08:36:40;;;;;;;28.80;3.13;;;;;;;23.98;59.00;99736.88;7309850;19;129234;-37
2023/06/11 08:39:06;;;;;;;35.33;3.22;;;;;;;24.06;58.04;99739.59;7314391;19;129427;-39
2023/06/11 08:41:31;;;;;;;51.07;3.83;;;;;;;24.04;58.58;99741.53;7314136;19;129760;-38
2023/06/11 08:43:57;;;;;;;38.20;3.53;;;;;;;24.06;58.26;99742.22;7317091;19;129514;-38
2023/06/11 08:46:23;;;;;;;33.43;3.37;;;;;;;23.74;57.78;99734.00;7313162;19;129276;-39
2023/06/11 08:48:59;;;;;;;43.63;3.92;;;;;;;23.91;58.92;99735.81;7317228;19;129179;-40
2023/06/11 08:51:27;;;;;;;52.80;3.92;;;;;;;24.01;58.96;99736.59;7316341;19;130576;-38
2023/06/11 08:53:52;;;;;;;41.55;3.13;;;;;;;24.11;58.02;99742.53;7315650;19;129156;-40
2023/06/11 08:56:18;;;;;;;52.70;4.50;;;;;;;23.98;56.08;99734.22;7314356;19;130414;-38
2023/06/11 08:58:44;;;;;;;37.47;3.23;;;;;;;23.88;58.95;99736.09;7315012;19;129624;-40
2023/06/11 09:01:10;;;;;;;51.53;3.83;;;;;;;23.97;58.65;99734.34;7315570;19;129346;-38
2023/06/11 09:03:36;;;;;;;17.60;2.60;;;;;;;23.91;58.46;99734.97;7315868;19;129067;-39
2023/06/11 09:06:02;;;;;;;32.50;3.00;;;;;;;23.76;57.21;99721.56;7314522;19;130016;-39
2023/06/11 09:08:28;;;;;;;43.40;3.73;;;;;;;23.89;58.41;99727.25;7314777;19;129471;-40
2023/06/11 09:10:54;;;;;;;47.33;4.07;;;;;;;23.89;57.51;99729.88;7316831;19;129728;-37
2023/06/11 09:13:24;;;;;;;37.90;3.78;;;;;;;23.88;58.46;99728.22;7313652;19;129024;-39
2023/06/11 09:16:00;;;;;;;36.58;3.20;;;;;;;23.94;59.22;99730.25;7314501;19;129851;-40
2023/06/11 09:18:26;;;;;;;38.85;3.55;;;;;;;24.02;58.09;99732.97;7311447;19;129602;-38
2023/06/11 09:20:53;;;;;;;47.83;3.85;;;;;;;24.03;58.83;99724.09;7315934;19;129454;-39
2023/06/11 09:23:24;;;;;;;;;;;;;;;24.06;58.37;99744.00;7315337;19;131296;-41
2023/06/11 09:25:49;;;;;;;31.80;3.33;;;;;;;23.88;59.05;99728.22;7313285;19;130173;-39
2023/06/11 09:28:15;;;;;;;71.77;5.00;;;;;;;23.84;58.92;99732.13;7312953;19;129334;-38
2023/06/11 09:30:40;;;;;;;62.63;4.47;;;;;;;23.86;58.67;99731.97;7309855;19;129246;-39
2023/06/11 09:33:15;;;;;;;58.03;4.30;;;;;;;23.84;55.93;99731.28;7312854;19;129353;-40
2023/06/11 09:35:44;;;;;;;23.45;3.25;;;;;;;23.45;60.17;99730.78;7314788;19;129008;-38
2023/06/11 09:38:15;;;;;;;52.13;4.13;;;;;;;23.69;59.39;99731.00;7313043;19;129423;-41
2023/06/11 09:40:54;;;;;;;38.17;3.15;;;;;;;23.61;59.67;99724.84;7310289;19;130169;-38
2023/06/11 09:43:23;;;;;;;38.63;3.28;;;;;;;23.47;59.75;99718.31;7312639;19;128846;-40
2023/06/11 09:45:52;;;;;;;73.95;5.20;;;;;;;23.48;60.33;99734.88;7309643;19;129584;-39
2023/06/11 09:48:20;;;;;;;22.40;3.00;;;;;;;23.67;58.38;99734.75;7315344;19;130037;-39
2023/06/11 09:50:48;;;;;;;30.20;3.03;;;;;;;23.75;58.56;99740.88;7314025;19;129287;-40
2023/06/11 09:53:14;;;;;;;51.97;3.95;;;;;;;23.85;58.95;99728.50;7311911;19;129049;-38
2023/06/11 09:55:40;;;;;;;59.13;4.93;;;;;;;23.72;56.41;99729.84;7311979;19;129153;-39
2023/06/11 09:58:06;;;;;;;78.67;5.47;;;;;;;23.64;60.03;99737.66;7311966;19;129466;-42
2023/06/11 10:00:33;;;;;;;121.05;7.85;;;;;;;23.66;59.28;99741.81;7308257;19;129557;-43
2023/06/11 10:02:59;;;;;;;33.28;3.20;;;;;;;23.63;59.19;99734.22;7313192;19;129319;-38
2023/06/11 10:05:25;;;;;;;87.53;5.73;;;;;;;23.74;59.02;99728.75;7312805;19;129233;-42
2023/06/11 10:07:53;;;;;;;38.83;3.47;;;;;;;23.87;59.44;99741.50;7310470;19;129970;-40
2023/06/11 10:10:21;;;;;;;54.15;4.25;;;;;;;23.88;58.63;99736.09;7314254;19;129165;-40
2023/06/11 10:12:54;;;;;;;38.95;3.30;;;;;;;23.88;59.01;99730.84;7314949;19;129131;-40
2023/06/11 10:15:24;;;;;;;50.92;4.05;;;;;;;23.89;58.39;99732.50;7312960;19;128945;-38
2023/06/11 10:17:51;;;;;;;50.13;4.35;;;;;;;23.96;58.68;99736.19;7314436;19;129579;-40
2023/06/11 10:20:37;;;;;;;41.22;3.47;;;;;;;23.78;60.08;99740.63;7315187;19;129251;-42
2023/06/11 10:23:11;;;;;;;39.15;3.55;;;;;;;23.78;58.50;99735.38;7308508;19;129295;-40
2023/06/11 10:25:39;;;;;;;40.10;3.78;;;;;;;23.83;58.88;99743.59;7310831;19;129478;-40
2023/06/11 10:28:06;;;;;;;72.00;5.15;;;;;;;23.91;58.42;99734.97;7307990;19;130255;-39
2023/06/11 10:30:31;;;;;;;117.68;8.07;;;;;;;23.87;58.93;99718.69;7310139;19;129793;-40
2023/06/11 10:32:58;;;;;;;63.13;4.50;;;;;;;24.02;58.52;99732.97;7312124;19;131388;-40
2023/06/11 10:35:32;;;;;;;34.92;3.60;;;;;;;23.70;56.79;99745.75;7309212;19;129125;-39
2023/06/11 10:38:05;;;;;;;56.15;4.65;;;;;;;23.69;60.30;99733.63;7309481;19;130760;-40
2023/06/11 10:40:35;;;;;;;45.53;4.10;;;;;;;23.57;59.00;99736.63;7309058;19;129605;-40
2023/06/11 10:43:04;;;;;;;60.28;4.47;;;;;;;23.62;59.38;99748.31;7309565;19;131011;-40
2023/06/11 10:45:38;;;;;;;29.90;3.15;;;;;;;23.45;58.88;99735.19;7311902;19;129006;-38
2023/06/11 10:48:04;;;;;;;51.60;3.95;;;;;;;23.57;60.30;99745.31;7311583;19;130095;-38
2023/06/11 10:50:31;;;;;;;89.93;6.80;;;;;;;23.64;58.57;99738.50;7310476;19;130361;-39
2023/06/11 10:53:06;;;;;;;74.85;5.55;;;;;;;23.65;59.23;99744.59;7311977;19;129118;-38
2023/06/11 10:55:32;;;;;;;76.13;5.97;;;;;;;23.67;58.83;99743.44;7310221;19;129641;-39
2023/06/11 10:57:59;;;;;;;35.38;3.38;;;;;;;23.77;59.52;99744.19;7311718;19;132032;-39
2023/06/11 11:00:32;;;;;;;64.75;5.30;;;;;;;23.79;58.92;99744.88;7307439;19;129972;-37
2023/06/11 11:02:59;;;;;;;53.08;4.50;;;;;;;23.56;59.30;99722.66;7309572;19;130048;-38
2023/06/11 11:05:25;;;;;;;38.92;3.60;;;;;;;23.69;59.31;99731.00;7308140;19;129166;-39
2023/06/11 11:07:53;;;;;;;50.78;3.85;;;;;;;23.89;59.03;99748.25;7313369;19;129390;-38
2023/06/11 11:10:23;;;;;;;88.90;5.85;;;;;;;23.98;59.24;99747.38;7308160;19;130295;-38
2023/06/11 11:12:49;;;;;;;17.90;2.30;;;;;;;24.00;58.98;99748.03;7312524;19;129064;-39
2023/06/11 11:15:15;;;;;;;51.30;4.23;;;;;;;24.06;58.79;99746.63;7312447;19;129078;-38